Friday, July 31, 2015, 3:21 PM EDT

KDYL, Doylestown Airport

Location: Doylestown, PA, United States Lat: 40.333
Local Time: 3:21 PM EDT (19:21 GMT) Lon: -75.117
Time Zone: US/Eastern Elev: 393 ft

Show me the last for .
Show Decoded

2015-07-31 14:54 METAR KDYL 311854Z AUTO VRB06G15KT 10SM SCT065 29/13 A2987 RMK AO2 SLP108
                 T02940133 =
2015-07-31 13:54 METAR KDYL 311754Z AUTO VRB05KT 10SM FEW065 29/12 A2988 RMK AO2 SLP112 T02890117
                 10300 20217 58012 =
2015-07-31 12:54 METAR KDYL 311654Z AUTO 31009KT 10SM CLR 29/14 A2989 RMK AO2 SLP116 T02890139 =
2015-07-31 11:54 METAR KDYL 311554Z AUTO VRB04KT 10SM CLR 28/16 A2991 RMK AO2 SLP121 T02830161 =
2015-07-31 09:54 METAR KDYL 311354Z AUTO 33003KT 10SM CLR 26/16 A2991 RMK AO2 SLP124 T02560156 =
2015-07-31 08:54 METAR KDYL 311254Z AUTO 32003KT 10SM CLR 24/16 A2991 RMK AO2 SLP123 T02390156 =
2015-07-31 07:54 METAR KDYL 311154Z AUTO 30003KT 10SM CLR 22/16 A2991 RMK AO2 SLP124 70002
                 T02170161 10217 20161 53009 =
2015-07-31 06:54 METAR KDYL 311054Z AUTO 00000KT 10SM CLR 18/17 A2990 RMK AO2 SLP119 T01780167 =
2015-07-31 05:54 METAR KDYL 310954Z AUTO 00000KT 10SM CLR 18/17 A2989 RMK AO2 SLP116 T01780167 =
2015-07-31 04:54 METAR KDYL 310854Z AUTO 00000KT 10SM CLR 18/17 A2988 RMK AO2 SLP116 T01830172
                 53004 =
2015-07-31 03:54 METAR KDYL 310754Z AUTO 00000KT 10SM CLR 21/17 A2988 RMK AO2 SLP113 T02060167 =
2015-07-31 02:54 METAR KDYL 310654Z AUTO 35003KT 10SM CLR 21/18 A2987 RMK AO2 SLP111 T02110178 =
2015-07-31 01:54 METAR KDYL 310554Z AUTO 31003KT 10SM CLR 21/20 A2987 RMK AO2 SLP110 T02110200
                 10250 20211 50002 =
2015-07-31 00:54 METAR KDYL 310454Z AUTO 00000KT 7SM SCT075 22/22 A2987 RMK AO2 SLP110 T02170217
                 402940217 =
2015-07-30 23:54 METAR KDYL 310354Z AUTO 00000KT 9SM CLR 22/22 A2987 RMK AO2 SLP109 T02220217 =
2015-07-30 22:54 METAR KDYL 310254Z AUTO 00000KT 10SM CLR 23/22 A2987 RMK AO2 SLP108 T02280222
                 51009 =
2015-07-30 21:54 METAR KDYL 310154Z AUTO VRB03KT 10SM CLR 23/22 A2986 RMK AO2 SLP106 T02330222 =
2015-07-30 20:54 METAR KDYL 310054Z AUTO 22003KT 10SM CLR 24/22 A2985 RMK AO2 SLP103 T02390222 =
2015-07-30 19:54 METAR KDYL 302354Z AUTO 23004KT 10SM OVC095 25/22 A2984 RMK AO2 SLP098 60002
                 T02500222 10283 20233 53005 =
2015-07-30 18:54 METAR KDYL 302254Z AUTO 24007KT 10SM SCT100 26/22 A2983 RMK AO2 SLP094 T02610217
                 =
2015-07-30 17:54 METAR KDYL 302154Z AUTO 23006KT 10SM BKN100 25/22 A2983 RMK AO2 RAE2059 SLP095
                 P0000 T02500222 =
2015-07-30 16:54 METAR KDYL 302054Z AUTO 22004KT 10SM -RA FEW043 SCT090 BKN110 24/22 A2982 RMK
                 AO2 LTG DSNT E AND SE RAB34E44B49 SLP093 P0000 60002 T02390222 58009 =
2015-07-30 15:54 METAR KDYL 301954Z AUTO 23007KT 10SM FEW070 FEW090 24/23 A2983 RMK AO2 LTG DSNT
                 E-S RAB1858E44 TSB00E28 SLP096 P0002 T02390228 =
2015-07-30 15:34 METAR KDYL 301934Z AUTO 25005KT 10SM VCTS -RA FEW055 BKN095 OVC110 24/23 A2984
                 RMK AO2 LTG DSNT E-S RAB1858 TSB00E28 P0002 T02390228 =

Support USWX by starting your Amazon purchase here.